sensor_id;sensor_type;location;lat;lon;timestamp;P1;durP1;ratioP1;P2;durP2;ratioP2
20832;SDS011;56075;51.264;7.150;2023-05-24T00:01:33;14.90;;;2.13;;
20832;SDS011;56075;51.264;7.150;2023-05-24T00:04:07;11.03;;;1.90;;
20832;SDS011;56075;51.264;7.150;2023-05-24T00:06:40;12.63;;;1.77;;
20832;SDS011;56075;51.264;7.150;2023-05-24T00:09:14;11.47;;;2.30;;
20832;SDS011;56075;51.264;7.150;2023-05-24T00:11:45;8.03;;;1.77;;
20832;SDS011;56075;51.264;7.150;2023-05-24T00:14:16;14.00;;;1.90;;
20832;SDS011;56075;51.264;7.150;2023-05-24T00:16:47;10.30;;;1.90;;
20832;SDS011;56075;51.264;7.150;2023-05-24T00:19:18;13.57;;;1.60;;
20832;SDS011;56075;51.264;7.150;2023-05-24T00:21:52;10.70;;;1.70;;
20832;SDS011;56075;51.264;7.150;2023-05-24T00:24:23;13.37;;;1.87;;
20832;SDS011;56075;51.264;7.150;2023-05-24T00:26:54;10.40;;;1.57;;
20832;SDS011;56075;51.264;7.150;2023-05-24T00:29:25;8.63;;;1.87;;
20832;SDS011;56075;51.264;7.150;2023-05-24T00:31:57;6.63;;;1.40;;
20832;SDS011;56075;51.264;7.150;2023-05-24T00:34:28;10.87;;;1.70;;
20832;SDS011;56075;51.264;7.150;2023-05-24T00:37:00;12.13;;;1.80;;
20832;SDS011;56075;51.264;7.150;2023-05-24T00:39:33;10.10;;;1.80;;
20832;SDS011;56075;51.264;7.150;2023-05-24T00:42:04;10.13;;;1.53;;
20832;SDS011;56075;51.264;7.150;2023-05-24T00:44:36;12.13;;;1.60;;
20832;SDS011;56075;51.264;7.150;2023-05-24T00:47:08;11.43;;;1.70;;
20832;SDS011;56075;51.264;7.150;2023-05-24T00:49:39;10.07;;;1.73;;
20832;SDS011;56075;51.264;7.150;2023-05-24T00:52:10;10.30;;;1.77;;
20832;SDS011;56075;51.264;7.150;2023-05-24T00:54:41;8.63;;;1.90;;
20832;SDS011;56075;51.264;7.150;2023-05-24T00:57:14;10.53;;;1.60;;
20832;SDS011;56075;51.264;7.150;2023-05-24T00:59:48;14.03;;;2.40;;
20832;SDS011;56075;51.264;7.150;2023-05-24T01:02:19;8.30;;;1.57;;
20832;SDS011;56075;51.264;7.150;2023-05-24T01:04:50;14.13;;;1.80;;
20832;SDS011;56075;51.264;7.150;2023-05-24T01:10:11;9.73;;;1.70;;
20832;SDS011;56075;51.264;7.150;2023-05-24T01:13:11;11.80;;;1.57;;
20832;SDS011;56075;51.264;7.150;2023-05-24T01:15:58;9.60;;;1.67;;
20832;SDS011;56075;51.264;7.150;2023-05-24T01:18:32;11.60;;;2.07;;
20832;SDS011;56075;51.264;7.150;2023-05-24T01:21:14;8.67;;;1.70;;
20832;SDS011;56075;51.264;7.150;2023-05-24T01:29:34;13.67;;;2.27;;
20832;SDS011;56075;51.264;7.150;2023-05-24T01:32:06;14.63;;;2.10;;
20832;SDS011;56075;51.264;7.150;2023-05-24T01:34:38;8.57;;;1.70;;
20832;SDS011;56075;51.264;7.150;2023-05-24T01:37:09;9.67;;;1.93;;
20832;SDS011;56075;51.264;7.150;2023-05-24T01:39:40;11.43;;;1.80;;
20832;SDS011;56075;51.264;7.150;2023-05-24T01:50:51;11.37;;;1.80;;
20832;SDS011;56075;51.264;7.150;2023-05-24T01:53:38;7.30;;;1.77;;
20832;SDS011;56075;51.264;7.150;2023-05-24T01:56:14;9.60;;;1.80;;
20832;SDS011;56075;51.264;7.150;2023-05-24T01:58:47;8.17;;;1.63;;
20832;SDS011;56075;51.264;7.150;2023-05-24T02:01:22;9.60;;;2.00;;
20832;SDS011;56075;51.264;7.150;2023-05-24T02:03:54;17.07;;;1.87;;
20832;SDS011;56075;51.264;7.150;2023-05-24T02:06:25;11.73;;;2.00;;
20832;SDS011;56075;51.264;7.150;2023-05-24T02:08:57;9.20;;;1.73;;
20832;SDS011;56075;51.264;7.150;2023-05-24T02:11:28;8.30;;;1.77;;
20832;SDS011;56075;51.264;7.150;2023-05-24T02:13:59;7.30;;;1.80;;
20832;SDS011;56075;51.264;7.150;2023-05-24T02:16:33;14.93;;;2.10;;
20832;SDS011;56075;51.264;7.150;2023-05-24T02:19:12;11.40;;;2.03;;
20832;SDS011;56075;51.264;7.150;2023-05-24T02:21:44;15.90;;;2.10;;
20832;SDS011;56075;51.264;7.150;2023-05-24T02:24:16;12.47;;;2.00;;
20832;SDS011;56075;51.264;7.150;2023-05-24T02:26:48;9.57;;;1.90;;
20832;SDS011;56075;51.264;7.150;2023-05-24T02:29:19;16.37;;;2.20;;
20832;SDS011;56075;51.264;7.150;2023-05-24T02:31:51;9.90;;;1.80;;
20832;SDS011;56075;51.264;7.150;2023-05-24T02:34:26;12.93;;;1.90;;
20832;SDS011;56075;51.264;7.150;2023-05-24T02:36:57;10.93;;;2.13;;
20832;SDS011;56075;51.264;7.150;2023-05-24T02:39:29;12.23;;;2.47;;
20832;SDS011;56075;51.264;7.150;2023-05-24T02:42:00;11.60;;;1.97;;
20832;SDS011;56075;51.264;7.150;2023-05-24T02:44:37;11.27;;;2.27;;
20832;SDS011;56075;51.264;7.150;2023-05-24T02:47:08;7.23;;;2.07;;
20832;SDS011;56075;51.264;7.150;2023-05-24T02:49:39;12.37;;;1.93;;
20832;SDS011;56075;51.264;7.150;2023-05-24T02:52:11;9.30;;;1.90;;
20832;SDS011;56075;51.264;7.150;2023-05-24T02:54:43;10.53;;;2.40;;
20832;SDS011;56075;51.264;7.150;2023-05-24T02:57:14;10.47;;;2.53;;
20832;SDS011;56075;51.264;7.150;2023-05-24T02:59:47;13.50;;;2.70;;
20832;SDS011;56075;51.264;7.150;2023-05-24T03:02:18;10.80;;;2.20;;
20832;SDS011;56075;51.264;7.150;2023-05-24T03:04:51;13.07;;;2.60;;
20832;SDS011;56075;51.264;7.150;2023-05-24T03:07:23;13.87;;;2.40;;
20832;SDS011;56075;51.264;7.150;2023-05-24T03:09:54;14.20;;;2.40;;
20832;SDS011;56075;51.264;7.150;2023-05-24T03:12:26;10.40;;;2.43;;
20832;SDS011;56075;51.264;7.150;2023-05-24T03:14:57;9.33;;;2.63;;
20832;SDS011;56075;51.264;7.150;2023-05-24T03:17:28;15.53;;;2.40;;
20832;SDS011;56075;51.264;7.150;2023-05-24T03:19:59;18.13;;;2.97;;
20832;SDS011;56075;51.264;7.150;2023-05-24T03:22:34;18.17;;;2.97;;
20832;SDS011;56075;51.264;7.150;2023-05-24T03:25:07;12.47;;;2.30;;
20832;SDS011;56075;51.264;7.150;2023-05-24T03:27:39;16.53;;;2.83;;
20832;SDS011;56075;51.264;7.150;2023-05-24T03:30:12;12.87;;;2.47;;
20832;SDS011;56075;51.264;7.150;2023-05-24T03:32:54;15.07;;;2.80;;
20832;SDS011;56075;51.264;7.150;2023-05-24T03:35:27;7.90;;;2.67;;
20832;SDS011;56075;51.264;7.150;2023-05-24T03:38:00;14.93;;;2.77;;
20832;SDS011;56075;51.264;7.150;2023-05-24T03:40:34;18.60;;;2.90;;
20832;SDS011;56075;51.264;7.150;2023-05-24T03:43:10;12.90;;;2.70;;
20832;SDS011;56075;51.264;7.150;2023-05-24T03:45:49;13.03;;;2.77;;
20832;SDS011;56075;51.264;7.150;2023-05-24T03:48:22;12.47;;;2.87;;
20832;SDS011;56075;51.264;7.150;2023-05-24T03:50:55;16.17;;;2.63;;
20832;SDS011;56075;51.264;7.150;2023-05-24T03:53:27;12.93;;;2.80;;
20832;SDS011;56075;51.264;7.150;2023-05-24T03:55:58;18.63;;;2.83;;
20832;SDS011;56075;51.264;7.150;2023-05-24T03:58:30;11.93;;;3.10;;
20832;SDS011;56075;51.264;7.150;2023-05-24T04:01:01;25.57;;;3.57;;
20832;SDS011;56075;51.264;7.150;2023-05-24T04:03:33;18.30;;;3.53;;
20832;SDS011;56075;51.264;7.150;2023-05-24T04:06:05;9.37;;;2.63;;
20832;SDS011;56075;51.264;7.150;2023-05-24T04:08:37;16.07;;;3.10;;
20832;SDS011;56075;51.264;7.150;2023-05-24T04:11:08;14.70;;;2.83;;
20832;SDS011;56075;51.264;7.150;2023-05-24T04:13:41;15.30;;;3.23;;
20832;SDS011;56075;51.264;7.150;2023-05-24T04:16:12;20.97;;;2.73;;
20832;SDS011;56075;51.264;7.150;2023-05-24T04:18:44;15.93;;;3.47;;
20832;SDS011;56075;51.264;7.150;2023-05-24T04:21:15;15.80;;;3.17;;
20832;SDS011;56075;51.264;7.150;2023-05-24T04:23:47;16.73;;;3.50;;
20832;SDS011;56075;51.264;7.150;2023-05-24T04:26:19;12.53;;;2.93;;
20832;SDS011;56075;51.264;7.150;2023-05-24T04:28:51;16.97;;;3.37;;
20832;SDS011;56075;51.264;7.150;2023-05-24T04:31:22;16.37;;;3.40;;
20832;SDS011;56075;51.264;7.150;2023-05-24T04:33:55;14.50;;;3.40;;
20832;SDS011;56075;51.264;7.150;2023-05-24T04:36:28;14.03;;;3.43;;
20832;SDS011;56075;51.264;7.150;2023-05-24T04:39:01;17.63;;;3.40;;
20832;SDS011;56075;51.264;7.150;2023-05-24T04:41:34;13.10;;;3.00;;
20832;SDS011;56075;51.264;7.150;2023-05-24T04:44:05;20.07;;;3.57;;
20832;SDS011;56075;51.264;7.150;2023-05-24T04:46:37;14.17;;;3.50;;
20832;SDS011;56075;51.264;7.150;2023-05-24T04:49:08;20.20;;;3.33;;
20832;SDS011;56075;51.264;7.150;2023-05-24T04:51:40;16.57;;;3.43;;
20832;SDS011;56075;51.264;7.150;2023-05-24T04:54:11;17.63;;;3.67;;
20832;SDS011;56075;51.264;7.150;2023-05-24T04:56:43;15.50;;;3.50;;
20832;SDS011;56075;51.264;7.150;2023-05-24T04:59:14;17.23;;;4.03;;
20832;SDS011;56075;51.264;7.150;2023-05-24T05:01:45;19.97;;;3.73;;
20832;SDS011;56075;51.264;7.150;2023-05-24T05:04:17;17.20;;;4.50;;
20832;SDS011;56075;51.264;7.150;2023-05-24T05:06:48;22.83;;;3.90;;
20832;SDS011;56075;51.264;7.150;2023-05-24T05:09:20;22.77;;;4.93;;
20832;SDS011;56075;51.264;7.150;2023-05-24T05:11:53;22.67;;;4.27;;
20832;SDS011;56075;51.264;7.150;2023-05-24T05:14:25;17.80;;;4.27;;
20832;SDS011;56075;51.264;7.150;2023-05-24T05:16:56;19.07;;;3.50;;
20832;SDS011;56075;51.264;7.150;2023-05-24T05:19:28;19.43;;;3.90;;
20832;SDS011;56075;51.264;7.150;2023-05-24T05:21:59;17.10;;;4.00;;
20832;SDS011;56075;51.264;7.150;2023-05-24T05:24:31;17.07;;;4.00;;
20832;SDS011;56075;51.264;7.150;2023-05-24T05:27:02;22.97;;;3.90;;
20832;SDS011;56075;51.264;7.150;2023-05-24T05:29:34;28.80;;;4.13;;
20832;SDS011;56075;51.264;7.150;2023-05-24T05:32:05;21.23;;;4.07;;
20832;SDS011;56075;51.264;7.150;2023-05-24T05:34:36;30.73;;;5.10;;
20832;SDS011;56075;51.264;7.150;2023-05-24T05:37:07;23.47;;;3.70;;
20832;SDS011;56075;51.264;7.150;2023-05-24T05:39:38;20.40;;;4.03;;
20832;SDS011;56075;51.264;7.150;2023-05-24T05:42:10;19.57;;;4.07;;
20832;SDS011;56075;51.264;7.150;2023-05-24T05:44:41;22.50;;;3.60;;
20832;SDS011;56075;51.264;7.150;2023-05-24T05:47:13;25.80;;;4.27;;
20832;SDS011;56075;51.264;7.150;2023-05-24T05:49:44;19.97;;;3.90;;
20832;SDS011;56075;51.264;7.150;2023-05-24T05:52:15;20.55;;;3.88;;
20832;SDS011;56075;51.264;7.150;2023-05-24T05:54:46;26.90;;;4.80;;
20832;SDS011;56075;51.264;7.150;2023-05-24T05:57:17;23.90;;;3.85;;
20832;SDS011;56075;51.264;7.150;2023-05-24T05:59:53;19.73;;;4.07;;
20832;SDS011;56075;51.264;7.150;2023-05-24T06:02:25;19.87;;;4.27;;
20832;SDS011;56075;51.264;7.150;2023-05-24T06:04:56;29.85;;;4.10;;
20832;SDS011;56075;51.264;7.150;2023-05-24T06:07:27;15.93;;;3.70;;
20832;SDS011;56075;51.264;7.150;2023-05-24T06:10:00;23.20;;;3.90;;
20832;SDS011;56075;51.264;7.150;2023-05-24T06:12:31;17.63;;;3.30;;
20832;SDS011;56075;51.264;7.150;2023-05-24T06:15:02;16.33;;;3.38;;
20832;SDS011;56075;51.264;7.150;2023-05-24T06:17:35;19.00;;;3.50;;
20832;SDS011;56075;51.264;7.150;2023-05-24T06:20:07;22.83;;;3.50;;
20832;SDS011;56075;51.264;7.150;2023-05-24T06:22:41;21.88;;;3.65;;
20832;SDS011;56075;51.264;7.150;2023-05-24T06:25:13;15.37;;;3.37;;
20832;SDS011;56075;51.264;7.150;2023-05-24T06:27:49;20.23;;;3.60;;
20832;SDS011;56075;51.264;7.150;2023-05-24T06:30:21;21.65;;;3.75;;
20832;SDS011;56075;51.264;7.150;2023-05-24T06:32:52;24.30;;;3.20;;
20832;SDS011;56075;51.264;7.150;2023-05-24T06:35:23;20.77;;;3.55;;
20832;SDS011;56075;51.264;7.150;2023-05-24T06:37:54;21.83;;;3.42;;
20832;SDS011;56075;51.264;7.150;2023-05-24T06:40:27;20.25;;;3.30;;
20832;SDS011;56075;51.264;7.150;2023-05-24T06:42:58;20.63;;;3.53;;
20832;SDS011;56075;51.264;7.150;2023-05-24T06:45:30;23.33;;;3.30;;
20832;SDS011;56075;51.264;7.150;2023-05-24T06:48:02;17.13;;;3.45;;
20832;SDS011;56075;51.264;7.150;2023-05-24T06:50:33;24.40;;;3.63;;
20832;SDS011;56075;51.264;7.150;2023-05-24T06:53:05;19.30;;;3.50;;
20832;SDS011;56075;51.264;7.150;2023-05-24T06:55:37;22.77;;;3.40;;
20832;SDS011;56075;51.264;7.150;2023-05-24T06:58:08;23.17;;;3.55;;
20832;SDS011;56075;51.264;7.150;2023-05-24T07:00:43;18.70;;;3.53;;
20832;SDS011;56075;51.264;7.150;2023-05-24T07:03:15;19.42;;;3.40;;
20832;SDS011;56075;51.264;7.150;2023-05-24T07:05:46;25.70;;;3.67;;
20832;SDS011;56075;51.264;7.150;2023-05-24T07:08:17;23.58;;;3.60;;
20832;SDS011;56075;51.264;7.150;2023-05-24T07:10:48;22.33;;;3.75;;
20832;SDS011;56075;51.264;7.150;2023-05-24T07:13:20;23.65;;;3.67;;
20832;SDS011;56075;51.264;7.150;2023-05-24T07:15:51;16.65;;;3.15;;
20832;SDS011;56075;51.264;7.150;2023-05-24T07:18:22;27.90;;;3.78;;
20832;SDS011;56075;51.264;7.150;2023-05-24T07:20:54;17.63;;;3.13;;
20832;SDS011;56075;51.264;7.150;2023-05-24T07:23:25;17.05;;;3.17;;
20832;SDS011;56075;51.264;7.150;2023-05-24T07:25:56;21.25;;;3.03;;
20832;SDS011;56075;51.264;7.150;2023-05-24T07:28:27;17.73;;;3.03;;
20832;SDS011;56075;51.264;7.150;2023-05-24T07:30:59;20.30;;;3.00;;
20832;SDS011;56075;51.264;7.150;2023-05-24T07:33:30;19.17;;;3.15;;
20832;SDS011;56075;51.264;7.150;2023-05-24T07:36:01;10.93;;;2.40;;
20832;SDS011;56075;51.264;7.150;2023-05-24T07:38:34;16.25;;;3.13;;
20832;SDS011;56075;51.264;7.150;2023-05-24T07:41:05;21.98;;;2.80;;
20832;SDS011;56075;51.264;7.150;2023-05-24T07:43:37;17.02;;;2.63;;
20832;SDS011;56075;51.264;7.150;2023-05-24T07:46:08;16.20;;;2.60;;
20832;SDS011;56075;51.264;7.150;2023-05-24T07:48:39;19.05;;;2.70;;
20832;SDS011;56075;51.264;7.150;2023-05-24T07:51:11;17.70;;;2.58;;
20832;SDS011;56075;51.264;7.150;2023-05-24T07:53:42;16.75;;;2.78;;
20832;SDS011;56075;51.264;7.150;2023-05-24T07:56:13;11.85;;;2.42;;
20832;SDS011;56075;51.264;7.150;2023-05-24T07:58:44;12.68;;;2.60;;
20832;SDS011;56075;51.264;7.150;2023-05-24T08:01:16;16.35;;;2.40;;
20832;SDS011;56075;51.264;7.150;2023-05-24T08:03:50;17.00;;;3.25;;
20832;SDS011;56075;51.264;7.150;2023-05-24T08:06:21;12.55;;;3.05;;
20832;SDS011;56075;51.264;7.150;2023-05-24T08:08:53;11.43;;;2.70;;
20832;SDS011;56075;51.264;7.150;2023-05-24T08:11:24;19.98;;;3.50;;
20832;SDS011;56075;51.264;7.150;2023-05-24T08:13:56;19.58;;;3.47;;
20832;SDS011;56075;51.264;7.150;2023-05-24T08:16:27;17.08;;;3.35;;
20832;SDS011;56075;51.264;7.150;2023-05-24T08:18:58;15.35;;;3.55;;
20832;SDS011;56075;51.264;7.150;2023-05-24T08:21:29;19.98;;;3.90;;
20832;SDS011;56075;51.264;7.150;2023-05-24T08:24:01;21.70;;;3.85;;
20832;SDS011;56075;51.264;7.150;2023-05-24T08:26:32;14.52;;;3.35;;
20832;SDS011;56075;51.264;7.150;2023-05-24T08:29:03;11.82;;;3.10;;
20832;SDS011;56075;51.264;7.150;2023-05-24T08:31:34;11.05;;;2.80;;
20832;SDS011;56075;51.264;7.150;2023-05-24T08:34:06;16.88;;;3.13;;
20832;SDS011;56075;51.264;7.150;2023-05-24T08:36:37;15.35;;;2.90;;
20832;SDS011;56075;51.264;7.150;2023-05-24T08:39:08;13.75;;;3.00;;
20832;SDS011;56075;51.264;7.150;2023-05-24T08:41:39;13.77;;;2.90;;
20832;SDS011;56075;51.264;7.150;2023-05-24T08:44:11;10.80;;;2.80;;
20832;SDS011;56075;51.264;7.150;2023-05-24T08:46:43;14.43;;;3.30;;
20832;SDS011;56075;51.264;7.150;2023-05-24T08:49:15;13.02;;;2.80;;
20832;SDS011;56075;51.264;7.150;2023-05-24T08:51:46;12.15;;;2.92;;
20832;SDS011;56075;51.264;7.150;2023-05-24T08:54:18;14.07;;;2.90;;
20832;SDS011;56075;51.264;7.150;2023-05-24T08:56:49;13.88;;;2.70;;
20832;SDS011;56075;51.264;7.150;2023-05-24T08:59:21;14.00;;;2.80;;
20832;SDS011;56075;51.264;7.150;2023-05-24T09:01:54;15.98;;;3.22;;
20832;SDS011;56075;51.264;7.150;2023-05-24T09:04:27;18.75;;;2.63;;
20832;SDS011;56075;51.264;7.150;2023-05-24T09:07:00;10.48;;;2.35;;
20832;SDS011;56075;51.264;7.150;2023-05-24T09:09:31;12.18;;;3.13;;
20832;SDS011;56075;51.264;7.150;2023-05-24T09:12:04;15.25;;;2.97;;
20832;SDS011;56075;51.264;7.150;2023-05-24T09:14:38;11.90;;;2.45;;
20832;SDS011;56075;51.264;7.150;2023-05-24T09:17:14;12.68;;;2.25;;
20832;SDS011;56075;51.264;7.150;2023-05-24T09:19:45;13.45;;;2.50;;
20832;SDS011;56075;51.264;7.150;2023-05-24T09:22:17;10.77;;;2.53;;
20832;SDS011;56075;51.264;7.150;2023-05-24T09:24:49;12.98;;;2.80;;
20832;SDS011;56075;51.264;7.150;2023-05-24T09:27:21;12.07;;;2.35;;
20832;SDS011;56075;51.264;7.150;2023-05-24T09:29:54;16.05;;;2.72;;
20832;SDS011;56075;51.264;7.150;2023-05-24T09:32:25;11.20;;;2.63;;
20832;SDS011;56075;51.264;7.150;2023-05-24T09:34:58;13.25;;;3.30;;
20832;SDS011;56075;51.264;7.150;2023-05-24T09:37:29;14.63;;;2.85;;
20832;SDS011;56075;51.264;7.150;2023-05-24T09:40:00;16.00;;;2.90;;
20832;SDS011;56075;51.264;7.150;2023-05-24T09:42:32;12.32;;;2.67;;
20832;SDS011;56075;51.264;7.150;2023-05-24T09:45:06;15.38;;;3.08;;
20832;SDS011;56075;51.264;7.150;2023-05-24T09:47:42;13.05;;;3.17;;
20832;SDS011;56075;51.264;7.150;2023-05-24T09:50:15;18.27;;;3.25;;
20832;SDS011;56075;51.264;7.150;2023-05-24T09:52:49;15.05;;;3.05;;
20832;SDS011;56075;51.264;7.150;2023-05-24T09:55:21;14.60;;;3.05;;
20832;SDS011;56075;51.264;7.150;2023-05-24T10:00:37;13.90;;;3.42;;
20832;SDS011;56075;51.264;7.150;2023-05-24T10:03:10;17.30;;;3.17;;
20832;SDS011;56075;51.264;7.150;2023-05-24T10:05:43;11.93;;;2.95;;
20832;SDS011;56075;51.264;7.150;2023-05-24T10:08:14;14.25;;;3.15;;
20832;SDS011;56075;51.264;7.150;2023-05-24T10:10:47;12.27;;;3.30;;
20832;SDS011;56075;51.264;7.150;2023-05-24T10:13:18;14.60;;;3.50;;
20832;SDS011;56075;51.264;7.150;2023-05-24T10:15:52;17.00;;;4.00;;
20832;SDS011;56075;51.264;7.150;2023-05-24T10:18:23;18.38;;;3.72;;
20832;SDS011;56075;51.264;7.150;2023-05-24T10:20:55;16.77;;;3.80;;
20832;SDS011;56075;51.264;7.150;2023-05-24T10:23:28;19.83;;;3.97;;
20832;SDS011;56075;51.264;7.150;2023-05-24T10:28:39;12.63;;;3.50;;
20832;SDS011;56075;51.264;7.150;2023-05-24T10:31:16;15.93;;;4.05;;
20832;SDS011;56075;51.264;7.150;2023-05-24T10:33:51;12.70;;;3.08;;
20832;SDS011;56075;51.264;7.150;2023-05-24T10:36:26;14.55;;;3.40;;
20832;SDS011;56075;51.264;7.150;2023-05-24T10:38:58;11.00;;;3.47;;
20832;SDS011;56075;51.264;7.150;2023-05-24T10:41:33;14.07;;;3.35;;
20832;SDS011;56075;51.264;7.150;2023-05-24T10:44:10;15.57;;;3.67;;
20832;SDS011;56075;51.264;7.150;2023-05-24T10:49:49;16.70;;;4.03;;
20832;SDS011;56075;51.264;7.150;2023-05-24T10:52:32;14.65;;;3.92;;
20832;SDS011;56075;51.264;7.150;2023-05-24T10:55:05;16.08;;;3.63;;
20832;SDS011;56075;51.264;7.150;2023-05-24T10:57:39;15.20;;;3.78;;
20832;SDS011;56075;51.264;7.150;2023-05-24T11:03:07;13.15;;;3.15;;
20832;SDS011;56075;51.264;7.150;2023-05-24T11:08:30;14.10;;;3.60;;
20832;SDS011;56075;51.264;7.150;2023-05-24T11:11:09;13.02;;;3.20;;
20832;SDS011;56075;51.264;7.150;2023-05-24T11:13:43;17.80;;;3.33;;
20832;SDS011;56075;51.264;7.150;2023-05-24T11:16:38;20.30;;;4.20;;
20832;SDS011;56075;51.264;7.150;2023-05-24T11:22:06;18.25;;;3.70;;
20832;SDS011;56075;51.264;7.150;2023-05-24T11:24:39;14.50;;;3.40;;
20832;SDS011;56075;51.264;7.150;2023-05-24T11:27:11;14.77;;;3.67;;
20832;SDS011;56075;51.264;7.150;2023-05-24T11:29:43;12.77;;;2.90;;
20832;SDS011;56075;51.264;7.150;2023-05-24T11:32:18;13.88;;;3.58;;
20832;SDS011;56075;51.264;7.150;2023-05-24T11:34:50;10.75;;;3.03;;
20832;SDS011;56075;51.264;7.150;2023-05-24T11:37:21;12.38;;;3.00;;
20832;SDS011;56075;51.264;7.150;2023-05-24T11:39:52;12.57;;;2.72;;
20832;SDS011;56075;51.264;7.150;2023-05-24T11:42:23;14.32;;;2.95;;
20832;SDS011;56075;51.264;7.150;2023-05-24T11:44:57;10.77;;;2.95;;
20832;SDS011;56075;51.264;7.150;2023-05-24T11:47:28;13.15;;;4.30;;
20832;SDS011;56075;51.264;7.150;2023-05-24T11:50:00;13.15;;;3.10;;
20832;SDS011;56075;51.264;7.150;2023-05-24T11:52:31;17.58;;;3.17;;
20832;SDS011;56075;51.264;7.150;2023-05-24T11:55:02;13.63;;;3.25;;
20832;SDS011;56075;51.264;7.150;2023-05-24T11:57:37;19.65;;;3.63;;
20832;SDS011;56075;51.264;7.150;2023-05-24T12:00:10;14.68;;;3.45;;
20832;SDS011;56075;51.264;7.150;2023-05-24T12:02:46;12.05;;;3.22;;
20832;SDS011;56075;51.264;7.150;2023-05-24T12:05:18;11.65;;;3.47;;
20832;SDS011;56075;51.264;7.150;2023-05-24T12:08:04;16.27;;;3.35;;
20832;SDS011;56075;51.264;7.150;2023-05-24T12:10:39;13.32;;;3.20;;
20832;SDS011;56075;51.264;7.150;2023-05-24T12:13:19;14.15;;;3.42;;
20832;SDS011;56075;51.264;7.150;2023-05-24T12:15:54;11.07;;;2.92;;
20832;SDS011;56075;51.264;7.150;2023-05-24T12:18:27;14.15;;;3.63;;
20832;SDS011;56075;51.264;7.150;2023-05-24T12:20:58;12.68;;;3.33;;
20832;SDS011;56075;51.264;7.150;2023-05-24T12:23:30;11.80;;;3.33;;
20832;SDS011;56075;51.264;7.150;2023-05-24T12:26:02;15.73;;;3.15;;
20832;SDS011;56075;51.264;7.150;2023-05-24T12:28:34;13.57;;;3.45;;
20832;SDS011;56075;51.264;7.150;2023-05-24T12:31:08;18.08;;;3.47;;
20832;SDS011;56075;51.264;7.150;2023-05-24T12:33:39;14.30;;;4.22;;
20832;SDS011;56075;51.264;7.150;2023-05-24T12:36:10;12.70;;;3.00;;
20832;SDS011;56075;51.264;7.150;2023-05-24T12:38:42;13.10;;;3.33;;
20832;SDS011;56075;51.264;7.150;2023-05-24T12:41:13;14.15;;;3.20;;
20832;SDS011;56075;51.264;7.150;2023-05-24T12:43:45;12.80;;;3.33;;
20832;SDS011;56075;51.264;7.150;2023-05-24T12:46:16;14.57;;;3.33;;
20832;SDS011;56075;51.264;7.150;2023-05-24T12:48:48;12.82;;;2.92;;
20832;SDS011;56075;51.264;7.150;2023-05-24T12:51:19;10.77;;;2.97;;
20832;SDS011;56075;51.264;7.150;2023-05-24T12:53:50;13.90;;;3.67;;
20832;SDS011;56075;51.264;7.150;2023-05-24T12:56:21;10.90;;;3.50;;
20832;SDS011;56075;51.264;7.150;2023-05-24T12:58:56;15.20;;;3.60;;
20832;SDS011;56075;51.264;7.150;2023-05-24T13:01:28;18.25;;;3.88;;
20832;SDS011;56075;51.264;7.150;2023-05-24T13:04:00;15.48;;;3.65;;
20832;SDS011;56075;51.264;7.150;2023-05-24T13:06:31;9.55;;;3.53;;
20832;SDS011;56075;51.264;7.150;2023-05-24T13:09:03;20.75;;;3.63;;
20832;SDS011;56075;51.264;7.150;2023-05-24T13:11:34;12.93;;;3.40;;
20832;SDS011;56075;51.264;7.150;2023-05-24T13:14:05;12.65;;;4.50;;
20832;SDS011;56075;51.264;7.150;2023-05-24T13:16:37;12.88;;;3.50;;
20832;SDS011;56075;51.264;7.150;2023-05-24T13:19:08;14.32;;;3.40;;
20832;SDS011;56075;51.264;7.150;2023-05-24T13:21:39;14.77;;;3.45;;
20832;SDS011;56075;51.264;7.150;2023-05-24T13:24:11;14.35;;;3.55;;
20832;SDS011;56075;51.264;7.150;2023-05-24T13:26:45;14.40;;;3.35;;
20832;SDS011;56075;51.264;7.150;2023-05-24T13:29:16;16.65;;;3.47;;
20832;SDS011;56075;51.264;7.150;2023-05-24T13:31:47;12.35;;;3.53;;
20832;SDS011;56075;51.264;7.150;2023-05-24T13:34:18;17.73;;;3.83;;
20832;SDS011;56075;51.264;7.150;2023-05-24T13:36:50;9.85;;;3.63;;
20832;SDS011;56075;51.264;7.150;2023-05-24T13:39:22;16.25;;;3.95;;
20832;SDS011;56075;51.264;7.150;2023-05-24T13:41:53;15.88;;;3.78;;
20832;SDS011;56075;51.264;7.150;2023-05-24T13:44:24;15.35;;;3.85;;
20832;SDS011;56075;51.264;7.150;2023-05-24T13:46:55;16.15;;;4.07;;
20832;SDS011;56075;51.264;7.150;2023-05-24T13:49:27;16.70;;;3.88;;
20832;SDS011;56075;51.264;7.150;2023-05-24T13:51:58;12.23;;;3.50;;
20832;SDS011;56075;51.264;7.150;2023-05-24T13:54:29;12.25;;;4.15;;
20832;SDS011;56075;51.264;7.150;2023-05-24T13:57:01;12.65;;;4.03;;
20832;SDS011;56075;51.264;7.150;2023-05-24T13:59:33;16.85;;;4.07;;
20832;SDS011;56075;51.264;7.150;2023-05-24T14:02:04;15.70;;;4.22;;
20832;SDS011;56075;51.264;7.150;2023-05-24T14:04:35;10.23;;;3.70;;
20832;SDS011;56075;51.264;7.150;2023-05-24T14:07:06;15.05;;;4.28;;
20832;SDS011;56075;51.264;7.150;2023-05-24T14:09:38;14.88;;;4.05;;
20832;SDS011;56075;51.264;7.150;2023-05-24T14:12:09;15.32;;;3.90;;
20832;SDS011;56075;51.264;7.150;2023-05-24T14:14:40;11.50;;;3.72;;
20832;SDS011;56075;51.264;7.150;2023-05-24T14:17:11;13.93;;;4.05;;
20832;SDS011;56075;51.264;7.150;2023-05-24T14:19:42;15.13;;;3.88;;
20832;SDS011;56075;51.264;7.150;2023-05-24T14:22:14;15.75;;;3.60;;
20832;SDS011;56075;51.264;7.150;2023-05-24T14:24:45;15.25;;;2.90;;
20832;SDS011;56075;51.264;7.150;2023-05-24T14:27:16;13.38;;;3.80;;
20832;SDS011;56075;51.264;7.150;2023-05-24T14:29:47;9.68;;;3.35;;
20832;SDS011;56075;51.264;7.150;2023-05-24T14:32:18;13.38;;;3.38;;
20832;SDS011;56075;51.264;7.150;2023-05-24T14:34:49;14.35;;;3.63;;
20832;SDS011;56075;51.264;7.150;2023-05-24T14:37:21;10.85;;;3.17;;
20832;SDS011;56075;51.264;7.150;2023-05-24T14:42:24;13.18;;;3.45;;
20832;SDS011;56075;51.264;7.150;2023-05-24T14:44:55;13.63;;;3.20;;
20832;SDS011;56075;51.264;7.150;2023-05-24T14:47:26;14.93;;;3.55;;
20832;SDS011;56075;51.264;7.150;2023-05-24T14:49:57;15.88;;;4.00;;
20832;SDS011;56075;51.264;7.150;2023-05-24T14:52:29;15.57;;;3.53;;
20832;SDS011;56075;51.264;7.150;2023-05-24T14:55:02;11.63;;;3.33;;
20832;SDS011;56075;51.264;7.150;2023-05-24T14:57:34;11.48;;;3.70;;
20832;SDS011;56075;51.264;7.150;2023-05-24T15:00:05;12.85;;;3.90;;
20832;SDS011;56075;51.264;7.150;2023-05-24T15:02:37;15.70;;;3.80;;
20832;SDS011;56075;51.264;7.150;2023-05-24T15:05:08;13.85;;;3.55;;
20832;SDS011;56075;51.264;7.150;2023-05-24T15:07:39;10.23;;;3.72;;
20832;SDS011;56075;51.264;7.150;2023-05-24T15:10:11;13.57;;;3.60;;
20832;SDS011;56075;51.264;7.150;2023-05-24T15:12:42;11.38;;;3.60;;
20832;SDS011;56075;51.264;7.150;2023-05-24T15:15:13;16.98;;;4.60;;
20832;SDS011;56075;51.264;7.150;2023-05-24T15:17:45;10.98;;;3.65;;
20832;SDS011;56075;51.264;7.150;2023-05-24T15:20:16;15.63;;;3.90;;
20832;SDS011;56075;51.264;7.150;2023-05-24T15:22:47;17.73;;;3.53;;
20832;SDS011;56075;51.264;7.150;2023-05-24T15:25:19;11.18;;;3.28;;
20832;SDS011;56075;51.264;7.150;2023-05-24T15:27:50;11.23;;;3.35;;
20832;SDS011;56075;51.264;7.150;2023-05-24T15:30:21;10.75;;;3.35;;
20832;SDS011;56075;51.264;7.150;2023-05-24T15:32:53;15.15;;;3.00;;
20832;SDS011;56075;51.264;7.150;2023-05-24T15:35:25;12.52;;;3.05;;
20832;SDS011;56075;51.264;7.150;2023-05-24T15:37:56;11.48;;;3.67;;
20832;SDS011;56075;51.264;7.150;2023-05-24T15:40:28;16.50;;;4.63;;
20832;SDS011;56075;51.264;7.150;2023-05-24T15:42:59;14.27;;;3.72;;